^^
Storico Dati WU Stazione
Giornaliero Summary for Maggio 4, 2012 Unita di misura:  Metrico    Anglosassone   
« Precedente Giorno
Successivo Giorno »
Giornaliero Settimanale Mensile Annuale Personalizzato
  Massimo: Minimo: Media:
Temperatura: 21.2 °C 11.3 °C 15.8 °C
Punto Rugiada: 13.1 °C 6.4 °C 9.7 °C
UmiditÓ: 83% 47% 68%
VelocitÓ Vento: 3.2km/h 0.0km/h 2km/h
Raffica Vento: 4.8km/h - -
Vento- - East
Pressione: 1011.7 hPa 1009.4 hPa -
Precipitazioni: 0.0 mm    
Historical Graphs
 
 
Tabella Riassuntiva del Giorno Maggio 4, 2012
Orario Temperatura Punto Rugiada Pressione Vento VelocitÓ Vento Raffica Vento UmiditÓ Rate Pioggia (orario)
00:00 13.3 °C 9.9 °C 1011.4 hPa Calm     80% 0.0 mm
00:10 13.1 °C 9.7 °C 1011.7 hPa Calm     80% 0.0 mm
00:15 13.1 °C 9.7 °C 1011.7 hPa Calm     80% 0.0 mm
00:20 13.1 °C 9.7 °C 1011.4 hPa Calm     80% 0.0 mm
00:25 13.0 °C 9.6 °C 1011.4 hPa Calm     80% 0.0 mm
00:30 13.0 °C 9.6 °C 1011.4 hPa Calm     80% 0.0 mm
00:35 12.9 °C 9.6 °C 1011.4 hPa Calm     80% 0.0 mm
00:45 12.8 °C 9.6 °C 1011.7 hPa Calm     81% 0.0 mm
00:50 12.8 °C 9.6 °C 1011.4 hPa Calm     81% 0.0 mm
01:00 12.7 °C 9.5 °C 1011.4 hPa Calm     81% 0.0 mm
01:10 12.5 °C 9.3 °C 1011.4 hPa Calm     81% 0.0 mm
01:25 12.3 °C 9.1 °C 1011.1 hPa Calm     81% 0.0 mm
01:30 12.4 °C 9.2 °C 1011.4 hPa Calm     81% 0.0 mm
01:35 12.3 °C 9.1 °C 1011.4 hPa Calm     81% 0.0 mm
01:45 12.3 °C 9.1 °C 1011.1 hPa Calm     81% 0.0 mm
01:50 12.3 °C 9.1 °C 1011.4 hPa Calm     81% 0.0 mm
02:00 12.3 °C 9.3 °C 1011.1 hPa Calm     82% 0.0 mm
02:10 12.2 °C 9.2 °C 1011.1 hPa Calm     82% 0.0 mm
02:15 12.2 °C 9.2 °C 1011.1 hPa Calm     82% 0.0 mm
02:20 12.1 °C 9.1 °C 1011.1 hPa Calm     82% 0.0 mm
02:30 12.1 °C 9.1 °C 1010.7 hPa Calm     82% 0.0 mm
02:35 12.1 °C 9.1 °C 1011.1 hPa Calm     82% 0.0 mm
02:45 12.1 °C 9.1 °C 1010.7 hPa Calm     82% 0.0 mm
02:50 12.1 °C 9.1 °C 1010.7 hPa Calm     82% 0.0 mm
03:00 12.1 °C 9.1 °C 1010.7 hPa Calm     82% 0.0 mm
03:10 11.9 °C 8.9 °C 1010.7 hPa Calm     82% 0.0 mm
03:15 11.9 °C 8.9 °C 1010.7 hPa Calm     82% 0.0 mm
03:20 11.9 °C 8.9 °C 1010.7 hPa Calm     82% 0.0 mm
03:30 11.7 °C 8.9 °C 1010.7 hPa Calm     83% 0.0 mm
03:35 11.6 °C 8.8 °C 1010.7 hPa Calm     83% 0.0 mm
03:45 11.5 °C 8.7 °C 1010.7 hPa Calm     83% 0.0 mm
03:50 11.4 °C 8.6 °C 1010.7 hPa Calm     83% 0.0 mm
04:00 11.4 °C 8.6 °C 1010.7 hPa Calm     83% 0.0 mm
04:10 11.4 °C 8.6 °C 1010.7 hPa Calm     83% 0.0 mm
04:15 11.5 °C 8.7 °C 1010.7 hPa Calm     83% 0.0 mm
04:20 11.5 °C 8.7 °C 1010.7 hPa Calm     83% 0.0 mm
04:30 11.4 °C 8.6 °C 1010.7 hPa Calm     83% 0.0 mm
04:35 11.4 °C 8.6 °C 1010.7 hPa Calm     83% 0.0 mm
04:45 11.4 °C 8.6 °C 1010.7 hPa Calm     83% 0.0 mm
04:50 11.4 °C 8.6 °C 1010.7 hPa Calm     83% 0.0 mm
05:00 11.3 °C 8.5 °C 1010.7 hPa Calm     83% 0.0 mm
05:10 11.3 °C 8.5 °C 1011.1 hPa Calm     83% 0.0 mm
05:15 11.3 °C 8.5 °C 1011.1 hPa Calm     83% 0.0 mm
05:20 11.3 °C 8.5 °C 1010.7 hPa Calm     83% 0.0 mm
05:35 11.4 °C 8.6 °C 1010.7 hPa Calm     83% 0.0 mm
05:45 11.4 °C 8.6 °C 1010.7 hPa Calm     83% 0.0 mm
05:50 11.5 °C 8.7 °C 1010.7 hPa Calm     83% 0.0 mm
06:00 11.5 °C 8.7 °C 1011.1 hPa Calm     83% 0.0 mm
06:10 11.5 °C 8.7 °C 1011.1 hPa Calm   1.6 km/h 83% 0.0 mm
06:15 11.5 °C 8.7 °C 1011.1 hPa Calm     83% 0.0 mm
06:20 11.6 °C 8.8 °C 1011.1 hPa Calm     83% 0.0 mm
06:30 11.6 °C 8.8 °C 1010.7 hPa Calm     83% 0.0 mm
06:35 11.8 °C 8.8 °C 1010.7 hPa Calm     82% 0.0 mm
06:45 11.9 °C 8.9 °C 1011.1 hPa Calm     82% 0.0 mm
06:55 11.9 °C 8.9 °C 1011.1 hPa Calm     82% 0.0 mm
07:00 12.0 °C 9.0 °C 1011.4 hPa Calm     82% 0.0 mm
07:10 12.1 °C 9.1 °C 1011.1 hPa Calm     82% 0.0 mm
07:15 12.2 °C 9.2 °C 1011.1 hPa Calm     82% 0.0 mm
07:20 12.3 °C 9.3 °C 1011.1 hPa Calm     82% 0.0 mm
07:30 12.4 °C 9.4 °C 1011.1 hPa Calm     82% 0.0 mm
07:35 12.6 °C 9.6 °C 1011.1 hPa Calm     82% 0.0 mm
07:45 12.8 °C 9.6 °C 1011.1 hPa Calm     81% 0.0 mm
07:50 12.8 °C 9.6 °C 1011.1 hPa Calm     81% 0.0 mm
08:00 13.1 °C 9.9 °C 1011.1 hPa Calm     81% 0.0 mm
08:10 13.2 °C 10.0 °C 1011.1 hPa NE 1.6 km/h 1.6 km/h 81% 0.0 mm
08:15 13.6 °C 10.4 °C 1011.1 hPa Calm   1.6 km/h 81% 0.0 mm
08:20 14.1 °C 10.7 °C 1011.4 hPa Calm   1.6 km/h 80% 0.0 mm
08:30 14.9 °C 11.1 °C 1011.1 hPa NW 1.6 km/h 1.6 km/h 78% 0.0 mm
08:35 15.5 °C 11.5 °C 1011.4 hPa Calm   1.6 km/h 77% 0.0 mm
08:45 15.6 °C 11.2 °C 1011.1 hPa Calm     75% 0.0 mm
08:55 15.4 °C 11.2 °C 1011.1 hPa Calm     76% 0.0 mm
09:00 15.8 °C 11.6 °C 1011.1 hPa Calm   3.2 km/h 76% 0.0 mm
09:10 15.4 °C 11.0 °C 1011.1 hPa Calm     75% 0.0 mm
09:15 15.8 °C 11.6 °C 1010.7 hPa Calm   3.2 km/h 76% 0.0 mm
09:20 16.6 °C 12.2 °C 1010.7 hPa Calm     75% 0.0 mm
09:30 17.1 °C 12.0 °C 1010.7 hPa NNE 1.6 km/h 1.6 km/h 72% 0.0 mm
09:35 16.9 °C 11.8 °C 1010.7 hPa Calm   1.6 km/h 72% 0.0 mm
09:45 16.2 °C 11.3 °C 1011.1 hPa Calm     73% 0.0 mm
09:50 16.3 °C 11.2 °C 1010.7 hPa Calm     72% 0.0 mm
10:00 16.2 °C 11.3 °C 1011.1 hPa ENE 1.6 km/h 1.6 km/h 73% 0.0 mm
10:10 16.2 °C 11.3 °C 1011.1 hPa Calm     73% 0.0 mm
10:15 16.3 °C 11.2 °C 1011.1 hPa ENE 1.6 km/h 1.6 km/h 72% 0.0 mm
10:20 16.3 °C 11.2 °C 1011.1 hPa Calm   1.6 km/h 72% 0.0 mm
10:35 17.0 °C 11.7 °C 1010.7 hPa Calm     71% 0.0 mm
10:45 17.2 °C 11.7 °C 1011.1 hPa Calm     70% 0.0 mm
10:50 17.1 °C 11.6 °C 1011.1 hPa Calm   1.6 km/h 70% 0.0 mm
11:00 17.3 °C 11.8 °C 1011.1 hPa NNE 3.2 km/h 3.2 km/h 70% 0.0 mm
11:10 17.9 °C 11.9 °C 1011.1 hPa NNE 3.2 km/h 3.2 km/h 68% 0.0 mm
11:15 17.6 °C 11.8 °C 1011.1 hPa Calm   3.2 km/h 69% 0.0 mm
11:20 17.3 °C 11.6 °C 1010.7 hPa North 1.6 km/h 1.6 km/h 69% 0.0 mm
11:30 17.5 °C 11.7 °C 1010.7 hPa NE 1.6 km/h 1.6 km/h 69% 0.0 mm
11:35 17.8 °C 12.1 °C 1011.1 hPa Calm   1.6 km/h 69% 0.0 mm
11:45 17.6 °C 11.8 °C 1010.7 hPa Calm     69% 0.0 mm
11:50 18.0 °C 12.2 °C 1010.7 hPa Calm     69% 0.0 mm
12:00 18.5 °C 12.3 °C 1010.7 hPa Calm     67% 0.0 mm
12:10 18.4 °C 12.2 °C 1010.7 hPa Calm   1.6 km/h 67% 0.0 mm
12:20 18.9 °C 12.6 °C 1010.4 hPa Calm     67% 0.0 mm
12:30 18.8 °C 12.3 °C 1010.4 hPa NE 1.6 km/h 1.6 km/h 66% 0.0 mm
12:35 18.6 °C 11.9 °C 1010.4 hPa Calm   1.6 km/h 65% 0.0 mm
12:45 19.3 °C 12.8 °C 1010.4 hPa Calm     66% 0.0 mm
12:50 19.3 °C 12.3 °C 1010.4 hPa ENE 1.6 km/h 1.6 km/h 64% 0.0 mm
13:00 19.3 °C 12.1 °C 1010.4 hPa SE 3.2 km/h 4.8 km/h 63% 0.0 mm
13:10 19.8 °C 12.3 °C 1010.4 hPa NNE 3.2 km/h 3.2 km/h 62% 0.0 mm
13:15 20.1 °C 12.8 °C 1010.4 hPa Calm   3.2 km/h 63% 0.0 mm
13:25 20.1 °C 12.8 °C 1010.4 hPa NNE 1.6 km/h 1.6 km/h 63% 0.0 mm
13:30 20.4 °C 12.9 °C 1010.4 hPa NNE 3.2 km/h 3.2 km/h 62% 0.0 mm
13:35 20.1 °C 12.6 °C 1010.4 hPa Calm   3.2 km/h 62% 0.0 mm
13:45 20.1 °C 12.8 °C 1010.4 hPa North 1.6 km/h 3.2 km/h 63% 0.0 mm
13:55 21.2 °C 13.1 °C 1010.4 hPa North 1.6 km/h 3.2 km/h 60% 0.0 mm
14:00 21.1 °C 13.1 °C 1010.4 hPa NNW 1.6 km/h 3.2 km/h 60% 0.0 mm
14:10 20.9 °C 12.8 °C 1010.4 hPa NNE 1.6 km/h 1.6 km/h 60% 0.0 mm
14:15 20.9 °C 12.6 °C 1010.4 hPa NNE 1.6 km/h 1.6 km/h 59% 0.0 mm
14:20 20.9 °C 12.3 °C 1010.4 hPa North 1.6 km/h 1.6 km/h 58% 0.0 mm
14:30 20.3 °C 12.1 °C 1010.4 hPa North 3.2 km/h 3.2 km/h 59% 0.0 mm
14:35 20.2 °C 11.9 °C 1010.4 hPa Calm   3.2 km/h 59% 0.0 mm
14:45 20.1 °C 11.6 °C 1010.4 hPa Calm   3.2 km/h 58% 0.0 mm
14:50 20.1 °C 11.6 °C 1010.4 hPa Calm   1.6 km/h 58% 0.0 mm
15:00 20.5 °C 12.2 °C 1010.0 hPa North 1.6 km/h 1.6 km/h 59% 0.0 mm
15:10 20.6 °C 12.1 °C 1010.0 hPa NNE 1.6 km/h 3.2 km/h 58% 0.0 mm
15:15 20.7 °C 11.9 °C 1010.0 hPa North 1.6 km/h 3.2 km/h 57% 0.0 mm
15:20 20.6 °C 11.8 °C 1010.0 hPa NNE 3.2 km/h 3.2 km/h 57% 0.0 mm
15:30 20.5 °C 11.4 °C 1010.0 hPa NNE 3.2 km/h 3.2 km/h 56% 0.0 mm
15:35 20.5 °C 11.2 °C 1010.0 hPa Calm   3.2 km/h 55% 0.0 mm
15:45 20.6 °C 11.2 °C 1009.7 hPa Calm     55% 0.0 mm
15:50 20.8 °C 11.7 °C 1009.7 hPa NE 1.6 km/h 1.6 km/h 56% 0.0 mm
16:00 20.9 °C 11.2 °C 1009.7 hPa Calm   3.2 km/h 54% 0.0 mm
16:15 20.7 °C 11.1 °C 1009.7 hPa Calm   3.2 km/h 54% 0.0 mm
16:20 20.9 °C 10.9 °C 1009.7 hPa Calm   1.6 km/h 53% 0.0 mm
16:35 20.8 °C 10.0 °C 1009.7 hPa Calm   1.6 km/h 50% 0.0 mm
16:45 20.5 °C 9.7 °C 1009.7 hPa Calm     50% 0.0 mm
16:50 20.5 °C 9.4 °C 1009.7 hPa NNE 1.6 km/h 1.6 km/h 49% 0.0 mm
17:00 20.4 °C 9.3 °C 1009.7 hPa Calm   1.6 km/h 49% 0.0 mm
17:15 20.4 °C 9.6 °C 1009.7 hPa NNE 1.6 km/h 3.2 km/h 50% 0.0 mm
17:20 20.3 °C 9.2 °C 1009.7 hPa North 1.6 km/h 3.2 km/h 49% 0.0 mm
17:30 20.3 °C 8.6 °C 1009.7 hPa NNE 1.6 km/h 3.2 km/h 47% 0.0 mm
17:35 20.2 °C 8.5 °C 1009.7 hPa Calm   3.2 km/h 47% 0.0 mm
17:45 20.1 °C 8.4 °C 1009.7 hPa NE 1.6 km/h 1.6 km/h 47% 0.0 mm
17:50 19.9 °C 8.2 °C 1009.7 hPa South 3.2 km/h 4.8 km/h 47% 0.0 mm
18:00 20.1 °C 8.7 °C 1009.7 hPa North 3.2 km/h 3.2 km/h 48% 0.0 mm
18:10 20.1 °C 8.7 °C 1009.4 hPa NE 1.6 km/h 1.6 km/h 48% 0.0 mm
18:20 19.9 °C 8.6 °C 1009.4 hPa ENE 1.6 km/h 4.8 km/h 48% 0.0 mm
18:30 19.7 °C 9.0 °C 1009.7 hPa Calm     50% 0.0 mm
18:35 19.6 °C 9.2 °C 1009.4 hPa Calm     51% 0.0 mm
18:50 19.4 °C 9.3 °C 1009.4 hPa Calm     52% 0.0 mm
19:00 19.2 °C 8.8 °C 1009.4 hPa Calm   1.6 km/h 51% 0.0 mm
19:10 18.9 °C 8.2 °C 1009.4 hPa Calm   1.6 km/h 50% 0.0 mm
19:15 18.9 °C 7.9 °C 1009.4 hPa NNE 1.6 km/h 1.6 km/h 49% 0.0 mm
19:20 18.9 °C 7.9 °C 1009.4 hPa Calm   1.6 km/h 49% 0.0 mm
19:30 18.6 °C 7.9 °C 1009.7 hPa Calm     50% 0.0 mm
19:35 18.5 °C 7.9 °C 1009.7 hPa Calm     50% 0.0 mm
19:45 18.3 °C 7.4 °C 1009.7 hPa NE 1.6 km/h 1.6 km/h 49% 0.0 mm
19:50 18.2 °C 7.0 °C 1009.7 hPa Calm   1.6 km/h 48% 0.0 mm
20:00 17.9 °C 7.0 °C 1009.7 hPa Calm     49% 0.0 mm
20:10 17.4 °C 6.9 °C 1009.7 hPa Calm     50% 0.0 mm
20:15 17.2 °C 6.9 °C 1009.7 hPa Calm     51% 0.0 mm
20:20 17.0 °C 7.1 °C 1009.7 hPa Calm     52% 0.0 mm
20:30 16.8 °C 6.6 °C 1010.0 hPa Calm     51% 0.0 mm
20:35 16.6 °C 6.4 °C 1010.0 hPa Calm     51% 0.0 mm
20:45 16.3 °C 6.4 °C 1010.0 hPa Calm     52% 0.0 mm
20:50 16.3 °C 6.4 °C 1010.0 hPa Calm     52% 0.0 mm
21:05 16.3 °C 6.9 °C 1010.0 hPa Calm     54% 0.0 mm
21:15 16.1 °C 7.3 °C 1010.0 hPa Calm     56% 0.0 mm
21:20 15.9 °C 7.4 °C 1010.0 hPa SSW 1.6 km/h 1.6 km/h 57% 0.0 mm
21:35 15.6 °C 7.6 °C 1010.4 hPa Calm     59% 0.0 mm
21:45 15.3 °C 7.6 °C 1010.4 hPa Calm     60% 0.0 mm
21:50 15.2 °C 7.4 °C 1010.7 hPa Calm     60% 0.0 mm
22:00 15.1 °C 7.6 °C 1010.7 hPa Calm     61% 0.0 mm
22:10 14.9 °C 7.7 °C 1010.4 hPa Calm     62% 0.0 mm
22:15 14.8 °C 7.8 °C 1010.7 hPa Calm     63% 0.0 mm
22:20 14.8 °C 8.1 °C 1010.7 hPa Calm     64% 0.0 mm
22:30 14.5 °C 7.8 °C 1010.7 hPa Calm     64% 0.0 mm
22:35 14.5 °C 7.8 °C 1010.7 hPa Calm     64% 0.0 mm
22:45 14.5 °C 7.8 °C 1010.7 hPa Calm     64% 0.0 mm
22:50 14.5 °C 7.8 °C 1010.7 hPa Calm     64% 0.0 mm
23:00 14.2 °C 7.9 °C 1010.7 hPa Calm     66% 0.0 mm
23:10 14.1 °C 7.8 °C 1010.4 hPa Calm     66% 0.0 mm
23:15 14.1 °C 7.8 °C 1010.7 hPa Calm     66% 0.0 mm
23:20 14.1 °C 7.8 °C 1010.7 hPa Calm     66% 0.0 mm
23:30 13.8 °C 7.8 °C 1010.7 hPa Calm     67% 0.0 mm
23:35 13.7 °C 7.7 °C 1010.7 hPa Calm     67% 0.0 mm
23:45 13.4 °C 7.7 °C 1010.7 hPa Calm     68% 0.0 mm
23:50 13.4 °C 7.6 °C 1010.7 hPa Calm     68% 0.0 mm
MeteoCampigiano - Campi Bisenzio (FI)
Grazie a Weather Underground